Wellsville, New York
Current Conditions -  °F | °C
As of 1:51 AM on Thursday 23 Oct 2014 (Local Time) from KELZ Reporting Station
Overcast Overcast  
Wind Chill: 35°   Ceiling: 400
Heat Index: 43°   Visibility: 10mi
Dew Point: 39°   Wind: 15mph
Humidity: 87%   Direction: 340°NNW
Pressure: 30.07"   Gusts: 21mph
Location:  42.13°N, 77.96°W
Report Text: KELZ 230551Z AUTO 34013G18KT 10SM OVC004 06/04 A3007 RMK AO2
Loading
Personal Weather Stations






























Interactive Weather Map
Tropical Storm Tracking
New forecast layout! Learn more

10-Day Weather Forecast

Advertisements
Track Severe Weather on mobile